createdAt,value
2023-05-23T00:05:48.523Z,80.68
2023-05-23T00:15:52.618Z,80.17
2023-05-23T00:25:56.578Z,80.01
2023-05-23T00:36:00.897Z,80.19
2023-05-23T00:46:04.774Z,80.40
2023-05-23T00:56:08.130Z,80.80
2023-05-23T01:06:12.124Z,80.99
2023-05-23T01:16:29.426Z,81.10
2023-05-23T01:27:09.995Z,81.17
2023-05-23T01:37:15.186Z,81.69
2023-05-23T01:47:18.630Z,81.17
2023-05-23T01:57:22.982Z,81.36
2023-05-23T02:07:26.717Z,81.64
2023-05-23T02:17:30.978Z,81.41
2023-05-23T02:27:34.749Z,82.04
2023-05-23T02:37:37.990Z,81.58
2023-05-23T02:47:41.622Z,81.98
2023-05-23T02:57:45.567Z,81.93
2023-05-23T03:07:48.880Z,82.21
2023-05-23T03:17:52.740Z,82.19
2023-05-23T03:27:56.375Z,81.89
2023-05-23T03:37:59.543Z,81.96
2023-05-23T03:48:28.147Z,82.14
2023-05-23T03:58:57.112Z,82.72
2023-05-23T04:09:00.389Z,83.40
2023-05-23T04:19:29.258Z,83.84
2023-05-23T04:29:32.493Z,83.75
2023-05-23T04:39:36.224Z,84.07
2023-05-23T04:50:00.601Z,83.53
2023-05-23T05:00:10.443Z,83.02
2023-05-23T05:10:25.112Z,82.61
2023-05-23T05:20:28.383Z,81.40
2023-05-23T05:30:41.735Z,77.96
2023-05-23T05:40:45.684Z,73.16
2023-05-23T05:51:15.185Z,70.55
2023-05-23T06:01:45.108Z,69.55
2023-05-23T06:11:48.562Z,69.23
2023-05-23T06:21:51.934Z,68.40
2023-05-23T06:31:56.369Z,64.86
2023-05-23T06:42:01.657Z,61.25
2023-05-23T06:52:10.203Z,59.14
2023-05-23T07:02:13.679Z,56.70
2023-05-23T07:12:17.435Z,53.38
2023-05-23T07:22:47.435Z,50.86
2023-05-23T07:33:18.244Z,48.40
2023-05-23T07:43:21.730Z,45.44
2023-05-23T07:53:25.094Z,44.07
2023-05-23T08:03:32.572Z,41.61
2023-05-23T08:13:41.561Z,41.29
2023-05-23T08:24:12.716Z,40.64
2023-05-23T08:34:17.369Z,41.49
2023-05-23T08:44:21.469Z,40.51
2023-05-23T08:54:29.611Z,41.03
2023-05-23T09:04:33.187Z,41.88
2023-05-23T09:14:42.729Z,43.30
2023-05-23T09:24:47.963Z,43.38
2023-05-23T09:34:57.358Z,43.66
2023-05-23T09:45:03.781Z,44.25
2023-05-23T09:55:09.610Z,44.29
2023-05-23T10:05:23.546Z,43.11
2023-05-23T10:15:31.167Z,43.52
2023-05-23T10:25:37.333Z,43.94
2023-05-23T10:36:01.982Z,43.62
2023-05-23T10:46:05.194Z,43.82
2023-05-23T10:56:33.781Z,43.49
2023-05-23T11:07:02.959Z,43.78
2023-05-23T11:17:32.435Z,43.91
2023-05-23T11:28:04.149Z,43.92
2023-05-23T11:38:07.811Z,43.61
2023-05-23T11:48:13.083Z,43.66
2023-05-23T11:58:16.879Z,43.70
2023-05-23T12:08:20.085Z,42.75
2023-05-23T12:18:23.445Z,43.09
2023-05-23T12:28:45.485Z,43.45
2023-05-23T12:38:48.692Z,43.43
2023-05-23T12:48:53.081Z,43.49
2023-05-23T12:58:57.447Z,43.06
2023-05-23T13:09:00.483Z,43.24
2023-05-23T13:19:03.599Z,44.39
2023-05-23T13:29:06.832Z,44.92
2023-05-23T13:39:10.142Z,45.66
2023-05-23T13:49:13.543Z,45.46
2023-05-23T13:59:21.245Z,45.28
2023-05-23T14:09:25.285Z,45.60
2023-05-23T14:19:28.305Z,46.29
2023-05-23T14:29:32.003Z,46.80
2023-05-23T14:39:36.205Z,46.00
2023-05-23T14:49:39.395Z,48.18
2023-05-23T14:59:46.832Z,49.97
2023-05-23T15:09:50.231Z,51.58
2023-05-23T15:19:57.444Z,53.16
2023-05-23T15:30:01.270Z,53.26
2023-05-23T15:40:05.658Z,51.68
2023-05-23T15:50:33.947Z,51.04
2023-05-23T16:00:37.231Z,53.26
2023-05-23T16:10:40.473Z,53.34
2023-05-23T16:20:43.599Z,54.06
2023-05-23T16:30:46.963Z,53.17
2023-05-23T16:40:50.041Z,53.94
2023-05-23T16:50:57.732Z,55.57
2023-05-23T17:01:00.860Z,56.11
2023-05-23T17:11:04.083Z,56.59
2023-05-23T17:21:07.620Z,57.13
2023-05-23T17:31:10.989Z,57.90
2023-05-23T17:41:14.734Z,58.61
2023-05-23T17:51:17.804Z,60.25
2023-05-23T18:01:21.058Z,62.25
2023-05-23T18:11:24.468Z,63.00
2023-05-23T18:21:27.556Z,63.87
2023-05-23T18:31:30.740Z,65.06
2023-05-23T18:41:33.945Z,66.01
2023-05-23T18:51:38.430Z,67.03
2023-05-23T19:01:41.553Z,68.23
2023-05-23T19:11:44.961Z,68.51
2023-05-23T19:21:47.977Z,69.77
2023-05-23T19:31:51.066Z,70.67
2023-05-23T19:41:54.401Z,71.50
2023-05-23T19:51:57.695Z,72.15
2023-05-23T20:02:00.756Z,72.76
2023-05-23T20:12:04.233Z,73.31
2023-05-23T20:22:07.481Z,73.58
2023-05-23T20:32:10.795Z,74.02
2023-05-23T20:42:15.279Z,74.63
2023-05-23T20:52:18.305Z,75.10
2023-05-23T21:02:21.592Z,74.78
2023-05-23T21:12:24.928Z,75.41
2023-05-23T21:22:28.060Z,75.42
2023-05-23T21:32:31.829Z,75.90
2023-05-23T21:43:00.431Z,76.36
2023-05-23T21:53:03.578Z,76.80
2023-05-23T22:03:06.741Z,77.07
2023-05-23T22:13:10.173Z,77.22
2023-05-23T22:23:17.288Z,77.36
2023-05-23T22:33:21.006Z,77.24
2023-05-23T22:43:24.319Z,77.86
2023-05-23T22:53:27.559Z,78.12
2023-05-23T23:03:30.733Z,78.49
2023-05-23T23:14:00.190Z,78.76
2023-05-23T23:24:03.482Z,78.96
2023-05-23T23:34:06.963Z,79.14
2023-05-23T23:44:10.520Z,78.99
2023-05-23T23:54:13.908Z,79.11
